Time;durP1;ratioP1;P1;durP2;ratioP2;P2;SDS_P1;SDS_P2;PMS_P1;PMS_P2;Temp;Humidity;BMP_temperature;BMP_pressure;BME280_temperature;BME280_humidity;BME280_pressure;Samples;Min_cycle;Max_cycle;Signal;HPM_P1;HPM_P2
2022/12/07 00:08:07;;;;;;;16.33;8.23;;;;;;;3.95;100.00;100536.94;21067569;28;20110;-72
2022/12/07 00:18:08;;;;;;;19.48;9.85;;;;;;;3.87;100.00;100534.22;21055373;28;20056;-72
2022/12/07 00:28:10;;;;;;;13.52;7.75;;;;;;;3.90;100.00;100543.78;21047731;28;20056;-71
2022/12/07 00:38:11;;;;;;;14.48;7.75;;;;;;;3.94;100.00;100525.72;21067286;28;20113;-71
2022/12/07 00:48:13;;;;;;;14.75;7.93;;;;;;;3.90;100.00;100517.88;21068073;28;20052;-73
2022/12/07 00:58:14;;;;;;;13.10;7.05;;;;;;;3.75;100.00;100519.41;21067140;28;20056;-76
2022/12/07 01:08:15;;;;;;;11.85;6.85;;;;;;;3.64;100.00;100521.00;21065905;28;20571;-74
2022/12/07 01:18:17;;;;;;;16.58;8.95;;;;;;;3.55;100.00;100515.69;21051214;28;20151;-75
2022/12/07 01:28:18;;;;;;;15.73;7.90;;;;;;;3.59;100.00;100525.19;20982383;28;20068;-80
2022/12/07 01:38:19;;;;;;;15.05;7.55;;;;;;;3.56;100.00;100530.34;20994005;28;20053;-75
2022/12/07 01:48:20;;;;;;;14.45;7.72;;;;;;;3.61;100.00;100531.28;20995906;28;20052;-75
2022/12/07 01:58:22;;;;;;;17.00;9.00;;;;;;;3.57;100.00;100532.94;20995650;28;20144;-73
2022/12/07 02:08:23;;;;;;;17.58;9.02;;;;;;;3.57;100.00;100521.72;20994471;28;20107;-73
2022/12/07 02:18:24;;;;;;;15.45;7.80;;;;;;;3.50;100.00;100517.31;20993815;28;20060;-75
2022/12/07 02:28:26;;;;;;;13.05;7.22;;;;;;;3.56;100.00;100517.41;20993589;28;20060;-73
2022/12/07 02:38:27;;;;;;;13.88;7.82;;;;;;;3.51;100.00;100519.06;20993339;28;20056;-73
2022/12/07 02:48:28;;;;;;;14.10;8.30;;;;;;;3.55;100.00;100505.31;20991305;28;20052;-74
2022/12/07 02:58:29;;;;;;;14.32;7.75;;;;;;;3.50;100.00;100487.13;20974731;28;20497;-74
2022/12/07 03:08:31;;;;;;;16.08;7.75;;;;;;;3.33;100.00;100499.81;20989862;28;20056;-74
2022/12/07 03:18:32;;;;;;;16.23;8.45;;;;;;;3.08;100.00;100477.00;20990673;28;20550;-73
2022/12/07 03:28:33;;;;;;;15.05;8.23;;;;;;;2.89;100.00;100493.06;20990350;28;20087;-73
2022/12/07 03:38:34;;;;;;;16.25;8.48;;;;;;;2.91;100.00;100483.59;20991920;28;20053;-76
2022/12/07 03:48:36;;;;;;;16.83;8.20;;;;;;;2.95;100.00;100475.91;20989863;28;20057;-75
2022/12/07 03:58:37;;;;;;;17.25;9.32;;;;;;;3.00;100.00;100478.59;20986382;28;20459;-73
2022/12/07 04:08:38;;;;;;;16.02;9.00;;;;;;;3.03;100.00;100471.75;20985685;28;20106;-73
2022/12/07 04:18:39;;;;;;;18.73;9.38;;;;;;;3.09;100.00;100470.97;20985502;28;20412;-75
2022/12/07 04:28:41;;;;;;;17.48;9.60;;;;;;;3.05;100.00;100469.19;20984973;28;20056;-74
2022/12/07 04:38:42;;;;;;;19.52;9.65;;;;;;;3.08;100.00;100461.47;20983593;28;20492;-74
2022/12/07 04:48:43;;;;;;;19.42;9.27;;;;;;;3.01;100.00;100470.84;21023005;22;20052;-78
2022/12/07 04:58:44;;;;;;;20.15;10.90;;;;;;;3.01;100.00;100468.25;21064676;28;20483;-78
2022/12/07 05:08:46;;;;;;;18.83;10.55;;;;;;;3.03;100.00;100468.31;21150988;28;20530;-79
2022/12/07 05:18:47;;;;;;;19.75;11.48;;;;;;;3.07;100.00;100480.44;21172828;28;20104;-79
2022/12/07 05:28:48;;;;;;;21.02;11.32;;;;;;;3.02;100.00;100475.19;21153616;28;20060;-79
2022/12/07 05:38:50;;;;;;;25.55;12.45;;;;;;;3.05;100.00;100451.94;21172773;28;20048;-79
2022/12/07 05:48:51;;;;;;;20.83;12.02;;;;;;;3.02;100.00;100454.50;21145113;28;20105;-79
2022/12/07 06:09:12;;;;;;;23.75;10.65;;;;;;;3.07;100.00;100465.78;21086221;28;20044;-78
2022/12/07 06:19:13;;;;;;;20.08;10.20;;;;;;;3.10;100.00;100459.78;21087171;28;20513;-79
2022/12/07 06:29:15;;;;;;;19.15;10.65;;;;;;;3.16;100.00;100465.03;21091595;28;20125;-79
2022/12/07 06:39:16;;;;;;;18.35;9.68;;;;;;;3.08;100.00;100471.81;21165886;28;20109;-79
2022/12/07 06:49:17;;;;;;;21.33;10.88;;;;;;;3.12;100.00;100460.69;21173522;27;20056;-79
2022/12/07 06:59:18;;;;;;;23.33;11.70;;;;;;;3.19;100.00;100469.41;21114582;28;20097;-80
2022/12/07 07:09:20;;;;;;;23.00;11.30;;;;;;;3.09;100.00;100470.97;21087979;28;20044;-79
2022/12/07 07:19:21;;;;;;;20.45;10.98;;;;;;;3.12;100.00;100465.84;21108771;28;20387;-79
2022/12/07 07:29:22;;;;;;;20.83;10.93;;;;;;;3.18;100.00;100472.84;21171235;28;20043;-79
2022/12/07 07:39:24;;;;;;;22.20;12.02;;;;;;;3.21;100.00;100497.06;21162293;28;20048;-79
2022/12/07 07:49:25;;;;;;;30.35;14.55;;;;;;;3.27;100.00;100488.50;21163781;28;20140;-78
2022/12/07 07:59:26;;;;;;;21.00;11.43;;;;;;;3.32;100.00;100503.25;21162385;28;20055;-78
2022/12/07 08:09:27;;;;;;;39.60;17.88;;;;;;;3.32;100.00;100507.56;21135438;28;20048;-78
2022/12/07 08:19:29;;;;;;;22.67;12.05;;;;;;;3.36;100.00;100509.34;21106130;28;20109;-79
2022/12/07 08:29:30;;;;;;;22.83;11.00;;;;;;;3.34;100.00;100506.72;21125502;28;20565;-78
2022/12/07 08:39:31;;;;;;;19.75;9.52;;;;;;;3.49;100.00;100520.75;21106149;28;20047;-78
2022/12/07 08:49:33;;;;;;;19.23;9.50;;;;;;;3.58;100.00;100526.06;21121525;28;20055;-78
2022/12/07 08:59:34;;;;;;;20.02;10.75;;;;;;;3.60;100.00;100524.38;21116842;28;20060;-79
2022/12/07 09:09:36;;;;;;;16.02;8.73;;;;;;;3.79;100.00;100535.88;21087665;28;20085;-78
2022/12/07 09:19:37;;;;;;;18.05;9.38;;;;;;;4.16;100.00;100516.47;21144607;28;20044;-79
2022/12/07 09:29:39;;;;;;;17.23;9.18;;;;;;;4.09;100.00;100525.03;21142548;28;20093;-78
2022/12/07 09:39:40;;;;;;;18.63;9.20;;;;;;;4.32;100.00;100513.22;21141726;28;20052;-78
2022/12/07 09:49:50;;;;;;;17.08;9.05;;;;;;;4.48;100.00;100514.25;21168872;28;20055;-80
2022/12/07 09:59:51;;;;;;;21.95;12.52;;;;;;;4.63;100.00;100511.81;21177771;28;20462;-80
2022/12/07 10:09:52;;;;;;;24.27;14.25;;;;;;;4.66;100.00;100500.63;21172720;28;20097;-80
2022/12/07 10:19:53;;;;;;;18.80;11.05;;;;;;;4.67;100.00;100494.56;21134879;27;20051;-80
2022/12/07 10:29:56;;;;;;;17.85;9.25;;;;;;;5.08;100.00;100481.09;21179009;28;20492;-80
2022/12/07 10:39:57;;;;;;;19.67;9.77;;;;;;;4.92;100.00;100480.09;21166765;28;20729;-79
2022/12/07 10:49:59;;;;;;;17.23;9.70;;;;;;;4.91;100.00;100472.31;21156473;28;20052;-80
2022/12/07 11:00:00;;;;;;;19.65;10.05;;;;;;;5.04;100.00;100448.19;21148896;28;20486;-79
2022/12/07 11:10:01;;;;;;;18.15;9.85;;;;;;;5.26;100.00;100439.69;21185943;27;20549;-80
2022/12/07 11:20:11;;;;;;;20.95;10.52;;;;;;;5.51;100.00;100425.13;21206355;27;20131;-80
2022/12/07 11:30:12;;;;;;;20.25;9.63;;;;;;;5.30;100.00;100415.47;21150836;28;20055;-80
2022/12/07 11:40:13;;;;;;;20.60;9.70;;;;;;;5.42;100.00;100419.03;21069546;28;20493;-80
2022/12/07 11:50:17;;;;;;;17.42;9.63;;;;;;;5.45;100.00;100409.50;21037906;28;20044;-80
2022/12/07 12:00:19;;;;;;;18.63;9.02;;;;;;;5.60;100.00;100390.53;20991626;28;20048;-80
2022/12/07 12:10:21;;;;;;;17.83;9.15;;;;;;;5.76;100.00;100388.88;20998524;28;20106;-80
2022/12/07 12:20:22;;;;;;;16.42;8.05;;;;;;;5.71;100.00;100381.06;21057391;28;20408;-79
2022/12/07 12:30:23;;;;;;;20.65;9.70;;;;;;;5.88;100.00;100376.78;21159454;28;20416;-81
2022/12/07 12:40:27;;;;;;;17.83;8.48;;;;;;;5.67;100.00;100363.72;21156198;28;20051;-79
2022/12/07 12:50:28;;;;;;;17.67;9.77;;;;;;;5.79;100.00;100363.75;21155930;28;20415;-79
2022/12/07 13:00:30;;;;;;;17.55;8.63;;;;;;;5.74;100.00;100355.06;21157269;28;20056;-79
2022/12/07 13:10:32;;;;;;;17.88;8.55;;;;;;;5.75;100.00;100348.16;21161608;28;20396;-79
2022/12/07 13:20:34;;;;;;;17.95;8.85;;;;;;;5.82;100.00;100331.72;21161498;28;20056;-79
2022/12/07 13:30:35;;;;;;;17.27;8.75;;;;;;;5.50;100.00;100324.69;21138137;28;20048;-79
2022/12/07 13:40:37;;;;;;;15.88;7.85;;;;;;;5.66;100.00;100325.63;21093998;28;20064;-79
2022/12/07 13:50:38;;;;;;;14.35;7.60;;;;;;;5.42;100.00;100326.41;21136138;28;20168;-79
2022/12/07 14:00:40;;;;;;;18.20;8.23;;;;;;;5.29;100.00;100322.91;21159618;28;20043;-79
2022/12/07 14:10:41;;;;;;;17.73;9.05;;;;;;;5.24;100.00;100327.19;21177119;28;20458;-79
2022/12/07 14:20:42;;;;;;;15.85;7.90;;;;;;;5.09;100.00;100332.31;21125204;28;20048;-79
2022/12/07 14:30:44;;;;;;;19.92;8.95;;;;;;;4.97;100.00;100338.28;21081202;28;20048;-79
2022/12/07 14:40:45;;;;;;;16.67;8.35;;;;;;;4.95;100.00;100333.97;21073349;28;20765;-79
2022/12/07 14:50:46;;;;;;;24.23;10.55;;;;;;;4.94;100.00;100327.03;21067240;28;20055;-80
2022/12/07 15:01:07;;;;;;;22.08;9.57;;;;;;;4.93;100.00;100325.28;21077345;28;20527;-80
2022/12/07 15:11:09;;;;;;;24.73;11.77;;;;;;;4.85;100.00;100322.66;20983069;28;20493;-79
2022/12/07 15:21:10;;;;;;;20.42;11.10;;;;;;;4.70;100.00;100315.66;21036952;28;20052;-79
2022/12/07 15:31:11;;;;;;;23.05;11.63;;;;;;;4.52;100.00;100307.75;21072294;28;20111;-79
2022/12/07 15:41:33;;;;;;;26.42;12.88;;;;;;;4.36;100.00;100318.00;21161582;28;20085;-79
2022/12/07 15:51:34;;;;;;;22.42;11.38;;;;;;;4.06;100.00;100305.63;21022149;23;20118;-77
2022/12/07 16:01:35;;;;;;;24.17;12.88;;;;;;;3.85;100.00;100302.84;20970289;22;20052;-87
2022/12/07 16:11:37;;;;;;;26.27;12.15;;;;;;;3.77;100.00;100287.22;20910608;28;20048;-86
2022/12/07 16:21:38;;;;;;;28.55;14.20;;;;;;;3.69;100.00;100281.13;20908647;28;20106;-86
2022/12/07 16:31:39;;;;;;;26.52;13.80;;;;;;;3.66;100.00;100291.44;20962530;28;20047;-84
2022/12/07 16:41:41;;;;;;;26.10;13.60;;;;;;;3.64;100.00;100276.72;20932985;28;20135;-85
2022/12/07 16:51:47;;;;;;;27.65;13.57;;;;;;;3.69;100.00;100273.34;20907280;28;20049;-85
2022/12/07 17:01:48;;;;;;;26.23;13.57;;;;;;;3.75;100.00;100250.09;20908421;28;20457;-86
2022/12/07 17:11:49;;;;;;;27.23;14.05;;;;;;;3.69;100.00;100250.03;20924945;28;20053;-86
2022/12/07 17:21:51;;;;;;;29.83;14.75;;;;;;;3.53;100.00;100253.31;20921661;28;20061;-86
2022/12/07 17:31:52;;;;;;;34.25;16.35;;;;;;;3.51;100.00;100242.97;20922076;28;20106;-86
2022/12/07 18:02:50;;;;;;;32.78;15.88;;;;;;;3.10;100.00;100221.78;20920642;28;20571;-85
2022/12/07 18:13:34;;;;;;;35.53;16.67;;;;;;;2.91;100.00;100225.00;20920069;28;20111;-85
2022/12/07 18:23:13;;;;;;;36.53;16.40;;;;;;;2.75;100.00;100230.00;20918150;28;20445;-85
2022/12/07 18:33:14;;;;;;;39.53;19.27;;;;;;;2.62;100.00;100230.66;20919147;28;20391;-86
2022/12/07 18:43:17;;;;;;;36.83;17.48;;;;;;;2.52;100.00;100228.81;20915789;28;20087;-85
2022/12/07 18:53:18;;;;;;;38.63;18.65;;;;;;;2.49;100.00;100229.66;20914704;28;20056;-85
2022/12/07 19:03:20;;;;;;;40.00;20.40;;;;;;;2.51;100.00;100209.00;20917687;28;20053;-86
2022/12/07 19:13:21;;;;;;;42.38;20.63;;;;;;;2.56;100.00;100217.66;20918841;28;20057;-87
2022/12/07 19:23:24;;;;;;;52.67;23.45;;;;;;;2.56;100.00;100220.25;20915911;28;20543;-85
2022/12/07 19:33:25;;;;;;;47.35;21.42;;;;;;;2.60;100.00;100214.28;20914063;28;20045;-85
2022/12/07 19:43:26;;;;;;;43.00;19.48;;;;;;;2.51;100.00;100206.41;20913326;28;20131;-85
2022/12/07 19:53:27;;;;;;;44.25;19.48;;;;;;;2.33;100.00;100198.38;20910115;28;20053;-86
2022/12/07 20:03:29;;;;;;;42.47;18.08;;;;;;;2.19;100.00;100190.44;20913486;28;20044;-85
2022/12/07 20:13:31;;;;;;;44.70;19.08;;;;;;;2.16;100.00;100196.44;20910529;28;20056;-85
2022/12/07 20:23:32;;;;;;;42.28;19.77;;;;;;;2.18;100.00;100178.38;20911160;28;20052;-85
2022/12/07 20:33:34;;;;;;;40.25;18.55;;;;;;;2.08;100.00;100187.69;20910162;28;20425;-84
2022/12/07 20:43:36;;;;;;;41.80;17.65;;;;;;;2.04;100.00;100181.63;20909212;28;20084;-84
2022/12/07 20:53:37;;;;;;;41.97;19.20;;;;;;;2.27;100.00;100169.03;20904528;28;20079;-84
2022/12/07 21:03:38;;;;;;;45.95;20.13;;;;;;;1.82;100.00;100183.84;20907514;28;20053;-85
2022/12/07 21:13:40;;;;;;;42.80;18.85;;;;;;;1.66;100.00;100170.69;20827233;28;20064;-87
2022/12/07 21:23:41;;;;;;;44.42;17.90;;;;;;;1.56;100.00;100173.97;20825517;28;20456;-84
2022/12/07 21:33:45;;;;;;;40.63;17.38;;;;;;;1.44;100.00;100161.72;20824520;28;20099;-83
2022/12/07 21:43:46;;;;;;;48.75;19.30;;;;;;;1.25;100.00;100157.09;20836905;28;20061;-83
2022/12/07 21:53:48;;;;;;;50.63;19.50;;;;;;;1.15;100.00;100152.59;20857806;28;20133;-84
2022/12/07 22:03:52;;;;;;;42.13;17.90;;;;;;;1.07;100.00;100139.56;20903162;28;20148;-83
2022/12/07 22:24:14;;;;;;;45.65;19.98;;;;;;;0.97;100.00;100153.13;20931418;28;20107;-84
2022/12/07 22:34:15;;;;;;;54.80;22.70;;;;;;;0.90;100.00;100134.09;20921586;28;20049;-83
2022/12/07 22:44:22;;;;;;;50.35;21.20;;;;;;;0.72;100.00;100132.03;20951648;23;20049;-82
2022/12/07 22:54:24;;;;;;;47.40;20.67;;;;;;;0.58;100.00;100132.63;20958500;28;20065;-79
2022/12/07 23:04:25;;;;;;;43.95;18.60;;;;;;;0.48;100.00;100128.97;20999742;28;20117;-80
2022/12/07 23:14:26;;;;;;;42.85;17.70;;;;;;;0.42;100.00;100115.94;21040556;28;20520;-81
2022/12/07 23:24:28;;;;;;;48.75;19.92;;;;;;;0.37;100.00;100117.56;20953366;28;20049;-79
2022/12/07 23:34:29;;;;;;;43.00;18.13;;;;;;;0.30;100.00;100103.72;20928059;28;20110;-80
2022/12/07 23:44:30;;;;;;;45.33;18.83;;;;;;;0.28;100.00;100091.63;20924803;28;20057;-78
2022/12/07 23:54:31;;;;;;;46.67;18.48;;;;;;;0.35;100.00;100083.22;20908964;28;20065;-79
